sensor_id;sensor_type;location;lat;lon;timestamp;P1;durP1;ratioP1;P2;durP2;ratioP2
3801;SDS011;1916;51.798;12.246;2023-02-12T00:01:20;49.20;;;24.40;;
3801;SDS011;1916;51.798;12.246;2023-02-12T00:03:23;42.77;;;24.10;;
3801;SDS011;1916;51.798;12.246;2023-02-12T00:05:26;36.27;;;22.70;;
3801;SDS011;1916;51.798;12.246;2023-02-12T00:07:29;37.30;;;23.23;;
3801;SDS011;1916;51.798;12.246;2023-02-12T00:09:32;39.67;;;22.27;;
3801;SDS011;1916;51.798;12.246;2023-02-12T00:11:34;43.07;;;22.90;;
3801;SDS011;1916;51.798;12.246;2023-02-12T00:13:36;38.70;;;23.77;;
3801;SDS011;1916;51.798;12.246;2023-02-12T00:15:39;41.63;;;21.93;;
3801;SDS011;1916;51.798;12.246;2023-02-12T00:17:42;41.20;;;22.37;;
3801;SDS011;1916;51.798;12.246;2023-02-12T00:19:45;42.60;;;24.23;;
3801;SDS011;1916;51.798;12.246;2023-02-12T00:21:49;43.33;;;23.77;;
3801;SDS011;1916;51.798;12.246;2023-02-12T00:23:51;37.27;;;22.37;;
3801;SDS011;1916;51.798;12.246;2023-02-12T00:25:54;38.07;;;21.83;;
3801;SDS011;1916;51.798;12.246;2023-02-12T00:27:56;35.00;;;21.30;;
3801;SDS011;1916;51.798;12.246;2023-02-12T00:29:59;32.23;;;19.50;;
3801;SDS011;1916;51.798;12.246;2023-02-12T00:32:01;38.67;;;22.57;;
3801;SDS011;1916;51.798;12.246;2023-02-12T00:34:04;33.97;;;21.87;;
3801;SDS011;1916;51.798;12.246;2023-02-12T00:36:07;40.60;;;21.57;;
3801;SDS011;1916;51.798;12.246;2023-02-12T00:38:10;44.53;;;22.00;;
3801;SDS011;1916;51.798;12.246;2023-02-12T00:40:12;36.47;;;21.80;;
3801;SDS011;1916;51.798;12.246;2023-02-12T00:42:14;36.17;;;20.70;;
3801;SDS011;1916;51.798;12.246;2023-02-12T00:44:16;37.10;;;21.40;;
3801;SDS011;1916;51.798;12.246;2023-02-12T00:46:18;34.73;;;20.40;;
3801;SDS011;1916;51.798;12.246;2023-02-12T00:48:22;35.57;;;20.63;;
3801;SDS011;1916;51.798;12.246;2023-02-12T00:50:24;42.83;;;23.00;;
3801;SDS011;1916;51.798;12.246;2023-02-12T00:52:27;42.63;;;24.10;;
3801;SDS011;1916;51.798;12.246;2023-02-12T00:54:29;35.70;;;21.17;;
3801;SDS011;1916;51.798;12.246;2023-02-12T00:56:32;37.30;;;22.43;;
3801;SDS011;1916;51.798;12.246;2023-02-12T00:58:34;41.13;;;22.80;;
3801;SDS011;1916;51.798;12.246;2023-02-12T01:00:37;40.80;;;22.30;;
3801;SDS011;1916;51.798;12.246;2023-02-12T01:02:39;37.93;;;22.30;;
3801;SDS011;1916;51.798;12.246;2023-02-12T01:04:41;41.00;;;21.60;;
3801;SDS011;1916;51.798;12.246;2023-02-12T01:06:44;38.37;;;20.27;;
3801;SDS011;1916;51.798;12.246;2023-02-12T01:08:49;38.37;;;22.80;;
3801;SDS011;1916;51.798;12.246;2023-02-12T01:10:56;37.80;;;21.57;;
3801;SDS011;1916;51.798;12.246;2023-02-12T01:12:59;36.53;;;21.10;;
3801;SDS011;1916;51.798;12.246;2023-02-12T01:15:02;33.73;;;19.57;;
3801;SDS011;1916;51.798;12.246;2023-02-12T01:17:06;33.27;;;19.50;;
3801;SDS011;1916;51.798;12.246;2023-02-12T01:19:10;30.90;;;18.90;;
3801;SDS011;1916;51.798;12.246;2023-02-12T01:21:15;41.27;;;21.10;;
3801;SDS011;1916;51.798;12.246;2023-02-12T01:23:22;38.90;;;21.37;;
3801;SDS011;1916;51.798;12.246;2023-02-12T01:25:24;46.03;;;23.70;;
3801;SDS011;1916;51.798;12.246;2023-02-12T01:27:28;39.50;;;21.23;;
3801;SDS011;1916;51.798;12.246;2023-02-12T01:29:30;36.57;;;20.17;;
3801;SDS011;1916;51.798;12.246;2023-02-12T01:31:35;35.60;;;21.20;;
3801;SDS011;1916;51.798;12.246;2023-02-12T01:33:39;36.97;;;22.03;;
3801;SDS011;1916;51.798;12.246;2023-02-12T01:35:41;37.03;;;21.27;;
3801;SDS011;1916;51.798;12.246;2023-02-12T01:37:44;38.23;;;21.90;;
3801;SDS011;1916;51.798;12.246;2023-02-12T01:39:46;38.27;;;21.13;;
3801;SDS011;1916;51.798;12.246;2023-02-12T01:41:49;36.57;;;20.77;;
3801;SDS011;1916;51.798;12.246;2023-02-12T01:44:07;30.60;;;20.37;;
3801;SDS011;1916;51.798;12.246;2023-02-12T01:46:12;33.20;;;20.27;;
3801;SDS011;1916;51.798;12.246;2023-02-12T01:48:16;38.57;;;22.07;;
3801;SDS011;1916;51.798;12.246;2023-02-12T01:50:20;35.03;;;21.17;;
3801;SDS011;1916;51.798;12.246;2023-02-12T01:52:23;35.33;;;20.70;;
3801;SDS011;1916;51.798;12.246;2023-02-12T01:54:29;39.10;;;22.20;;
3801;SDS011;1916;51.798;12.246;2023-02-12T01:56:32;35.97;;;21.17;;
3801;SDS011;1916;51.798;12.246;2023-02-12T01:58:37;34.57;;;20.63;;
3801;SDS011;1916;51.798;12.246;2023-02-12T02:00:44;38.23;;;21.27;;
3801;SDS011;1916;51.798;12.246;2023-02-12T02:02:57;42.43;;;20.50;;
3801;SDS011;1916;51.798;12.246;2023-02-12T02:05:02;33.13;;;19.10;;
3801;SDS011;1916;51.798;12.246;2023-02-12T02:07:05;35.93;;;20.80;;
3801;SDS011;1916;51.798;12.246;2023-02-12T02:09:10;32.13;;;19.57;;
3801;SDS011;1916;51.798;12.246;2023-02-12T02:11:12;36.13;;;22.77;;
3801;SDS011;1916;51.798;12.246;2023-02-12T02:13:34;31.20;;;19.73;;
3801;SDS011;1916;51.798;12.246;2023-02-12T02:15:56;33.30;;;19.40;;
3801;SDS011;1916;51.798;12.246;2023-02-12T02:18:02;35.10;;;22.17;;
3801;SDS011;1916;51.798;12.246;2023-02-12T02:24:49;35.13;;;20.37;;
3801;SDS011;1916;51.798;12.246;2023-02-12T02:29:47;38.07;;;23.50;;
3801;SDS011;1916;51.798;12.246;2023-02-12T02:34:24;36.57;;;20.97;;
3801;SDS011;1916;51.798;12.246;2023-02-12T02:36:36;36.53;;;20.47;;
3801;SDS011;1916;51.798;12.246;2023-02-12T02:41:07;39.33;;;22.70;;
3801;SDS011;1916;51.798;12.246;2023-02-12T02:43:27;36.40;;;21.93;;
3801;SDS011;1916;51.798;12.246;2023-02-12T02:45:42;41.87;;;22.50;;
3801;SDS011;1916;51.798;12.246;2023-02-12T02:48:00;41.20;;;21.90;;
3801;SDS011;1916;51.798;12.246;2023-02-12T02:50:07;34.07;;;20.40;;
3801;SDS011;1916;51.798;12.246;2023-02-12T02:52:13;39.67;;;21.40;;
3801;SDS011;1916;51.798;12.246;2023-02-12T02:54:20;38.93;;;22.77;;
3801;SDS011;1916;51.798;12.246;2023-02-12T02:56:27;41.73;;;22.00;;
3801;SDS011;1916;51.798;12.246;2023-02-12T03:00:47;39.70;;;22.70;;
3801;SDS011;1916;51.798;12.246;2023-02-12T03:02:54;41.47;;;23.57;;
3801;SDS011;1916;51.798;12.246;2023-02-12T03:05:07;36.90;;;21.67;;
3801;SDS011;1916;51.798;12.246;2023-02-12T03:09:50;38.80;;;21.90;;
3801;SDS011;1916;51.798;12.246;2023-02-12T03:11:53;39.47;;;21.97;;
3801;SDS011;1916;51.798;12.246;2023-02-12T03:16:27;46.80;;;22.93;;
3801;SDS011;1916;51.798;12.246;2023-02-12T03:18:32;38.53;;;21.20;;
3801;SDS011;1916;51.798;12.246;2023-02-12T03:20:41;35.27;;;20.70;;
3801;SDS011;1916;51.798;12.246;2023-02-12T03:22:50;39.53;;;22.57;;
3801;SDS011;1916;51.798;12.246;2023-02-12T03:26:59;37.10;;;21.27;;
3801;SDS011;1916;51.798;12.246;2023-02-12T03:29:06;35.20;;;20.80;;
3801;SDS011;1916;51.798;12.246;2023-02-12T03:31:18;30.87;;;19.60;;
3801;SDS011;1916;51.798;12.246;2023-02-12T03:33:28;30.83;;;19.70;;
3801;SDS011;1916;51.798;12.246;2023-02-12T03:35:58;28.80;;;18.23;;
3801;SDS011;1916;51.798;12.246;2023-02-12T03:42:38;34.20;;;20.07;;
3801;SDS011;1916;51.798;12.246;2023-02-12T03:47:04;30.70;;;18.53;;
3801;SDS011;1916;51.798;12.246;2023-02-12T03:50:03;27.20;;;17.57;;
3801;SDS011;1916;51.798;12.246;2023-02-12T03:52:00;28.60;;;17.80;;
3801;SDS011;1916;51.798;12.246;2023-02-12T03:54:03;29.73;;;18.37;;
3801;SDS011;1916;51.798;12.246;2023-02-12T03:56:10;30.50;;;19.20;;
3801;SDS011;1916;51.798;12.246;2023-02-12T03:58:16;38.30;;;20.47;;
3801;SDS011;1916;51.798;12.246;2023-02-12T04:00:22;31.40;;;18.90;;
3801;SDS011;1916;51.798;12.246;2023-02-12T04:02:25;31.03;;;19.70;;
3801;SDS011;1916;51.798;12.246;2023-02-12T04:04:27;32.07;;;19.37;;
3801;SDS011;1916;51.798;12.246;2023-02-12T04:06:30;34.43;;;20.27;;
3801;SDS011;1916;51.798;12.246;2023-02-12T04:08:33;31.50;;;19.20;;
3801;SDS011;1916;51.798;12.246;2023-02-12T04:15:26;27.17;;;18.63;;
3801;SDS011;1916;51.798;12.246;2023-02-12T04:20:02;33.30;;;17.97;;
3801;SDS011;1916;51.798;12.246;2023-02-12T04:22:17;33.27;;;20.10;;
3801;SDS011;1916;51.798;12.246;2023-02-12T04:24:51;32.00;;;18.80;;
3801;SDS011;1916;51.798;12.246;2023-02-12T04:28:03;29.67;;;19.00;;
3801;SDS011;1916;51.798;12.246;2023-02-12T04:32:05;27.57;;;17.50;;
3801;SDS011;1916;51.798;12.246;2023-02-12T04:34:20;32.50;;;18.83;;
3801;SDS011;1916;51.798;12.246;2023-02-12T04:36:31;30.33;;;18.33;;
3801;SDS011;1916;51.798;12.246;2023-02-12T04:38:37;29.40;;;19.13;;
3801;SDS011;1916;51.798;12.246;2023-02-12T04:40:42;27.40;;;18.90;;
3801;SDS011;1916;51.798;12.246;2023-02-12T04:42:46;31.30;;;18.57;;
3801;SDS011;1916;51.798;12.246;2023-02-12T04:44:49;28.27;;;17.60;;
3801;SDS011;1916;51.798;12.246;2023-02-12T04:46:52;29.63;;;18.93;;
3801;SDS011;1916;51.798;12.246;2023-02-12T04:48:55;26.70;;;16.83;;
3801;SDS011;1916;51.798;12.246;2023-02-12T04:50:59;30.30;;;18.77;;
3801;SDS011;1916;51.798;12.246;2023-02-12T04:53:01;28.43;;;17.30;;
3801;SDS011;1916;51.798;12.246;2023-02-12T04:55:03;32.57;;;20.27;;
3801;SDS011;1916;51.798;12.246;2023-02-12T04:57:06;32.07;;;18.43;;
3801;SDS011;1916;51.798;12.246;2023-02-12T04:59:09;31.13;;;18.03;;
3801;SDS011;1916;51.798;12.246;2023-02-12T05:01:11;30.60;;;19.50;;
3801;SDS011;1916;51.798;12.246;2023-02-12T05:03:14;30.53;;;17.97;;
3801;SDS011;1916;51.798;12.246;2023-02-12T05:05:16;30.90;;;16.93;;
3801;SDS011;1916;51.798;12.246;2023-02-12T05:07:19;29.37;;;18.60;;
3801;SDS011;1916;51.798;12.246;2023-02-12T05:09:21;29.57;;;17.47;;
3801;SDS011;1916;51.798;12.246;2023-02-12T05:11:23;36.90;;;19.07;;
3801;SDS011;1916;51.798;12.246;2023-02-12T05:13:25;27.23;;;17.47;;
3801;SDS011;1916;51.798;12.246;2023-02-12T05:15:28;26.50;;;17.17;;
3801;SDS011;1916;51.798;12.246;2023-02-12T05:17:30;33.47;;;19.53;;
3801;SDS011;1916;51.798;12.246;2023-02-12T05:19:32;28.40;;;18.17;;
3801;SDS011;1916;51.798;12.246;2023-02-12T05:21:35;27.13;;;17.50;;
3801;SDS011;1916;51.798;12.246;2023-02-12T05:23:38;28.47;;;16.90;;
3801;SDS011;1916;51.798;12.246;2023-02-12T05:25:41;36.33;;;17.70;;
3801;SDS011;1916;51.798;12.246;2023-02-12T05:27:43;33.10;;;17.83;;
3801;SDS011;1916;51.798;12.246;2023-02-12T05:29:46;31.17;;;17.73;;
3801;SDS011;1916;51.798;12.246;2023-02-12T05:31:48;30.83;;;18.20;;
3801;SDS011;1916;51.798;12.246;2023-02-12T05:33:50;31.07;;;18.03;;
3801;SDS011;1916;51.798;12.246;2023-02-12T05:35:53;26.33;;;15.93;;
3801;SDS011;1916;51.798;12.246;2023-02-12T05:37:56;28.13;;;16.93;;
3801;SDS011;1916;51.798;12.246;2023-02-12T05:39:58;29.47;;;18.60;;
3801;SDS011;1916;51.798;12.246;2023-02-12T05:42:01;29.57;;;17.93;;
3801;SDS011;1916;51.798;12.246;2023-02-12T05:44:03;29.17;;;18.07;;
3801;SDS011;1916;51.798;12.246;2023-02-12T05:46:06;28.60;;;18.30;;
3801;SDS011;1916;51.798;12.246;2023-02-12T05:48:09;28.40;;;16.73;;
3801;SDS011;1916;51.798;12.246;2023-02-12T05:50:11;28.07;;;17.27;;
3801;SDS011;1916;51.798;12.246;2023-02-12T05:52:13;27.47;;;17.40;;
3801;SDS011;1916;51.798;12.246;2023-02-12T05:54:15;36.40;;;19.43;;
3801;SDS011;1916;51.798;12.246;2023-02-12T05:58:24;34.60;;;19.00;;
3801;SDS011;1916;51.798;12.246;2023-02-12T06:00:26;34.73;;;19.40;;
3801;SDS011;1916;51.798;12.246;2023-02-12T06:02:28;37.47;;;19.67;;
3801;SDS011;1916;51.798;12.246;2023-02-12T06:04:30;33.30;;;19.60;;
3801;SDS011;1916;51.798;12.246;2023-02-12T06:06:33;31.47;;;18.23;;
3801;SDS011;1916;51.798;12.246;2023-02-12T06:08:35;29.13;;;17.40;;
3801;SDS011;1916;51.798;12.246;2023-02-12T06:10:38;31.07;;;17.77;;
3801;SDS011;1916;51.798;12.246;2023-02-12T06:12:40;31.30;;;17.77;;
3801;SDS011;1916;51.798;12.246;2023-02-12T06:14:43;34.50;;;18.27;;
3801;SDS011;1916;51.798;12.246;2023-02-12T06:16:46;34.87;;;18.93;;
3801;SDS011;1916;51.798;12.246;2023-02-12T06:18:50;33.43;;;18.17;;
3801;SDS011;1916;51.798;12.246;2023-02-12T06:20:53;36.93;;;18.27;;
3801;SDS011;1916;51.798;12.246;2023-02-12T06:22:56;29.50;;;16.93;;
3801;SDS011;1916;51.798;12.246;2023-02-12T06:24:58;29.03;;;17.20;;
3801;SDS011;1916;51.798;12.246;2023-02-12T06:27:01;31.37;;;16.57;;
3801;SDS011;1916;51.798;12.246;2023-02-12T06:29:03;29.80;;;17.13;;
3801;SDS011;1916;51.798;12.246;2023-02-12T06:31:14;33.83;;;20.00;;
3801;SDS011;1916;51.798;12.246;2023-02-12T06:33:19;33.30;;;17.27;;
3801;SDS011;1916;51.798;12.246;2023-02-12T06:35:21;33.90;;;17.50;;
3801;SDS011;1916;51.798;12.246;2023-02-12T06:37:23;33.57;;;18.50;;
3801;SDS011;1916;51.798;12.246;2023-02-12T06:39:25;34.00;;;18.00;;
3801;SDS011;1916;51.798;12.246;2023-02-12T06:41:28;36.33;;;18.60;;
3801;SDS011;1916;51.798;12.246;2023-02-12T06:43:30;33.03;;;18.37;;
3801;SDS011;1916;51.798;12.246;2023-02-12T06:45:32;32.20;;;17.43;;
3801;SDS011;1916;51.798;12.246;2023-02-12T06:47:35;31.60;;;18.17;;
3801;SDS011;1916;51.798;12.246;2023-02-12T06:49:38;34.70;;;18.37;;
3801;SDS011;1916;51.798;12.246;2023-02-12T06:51:40;30.50;;;17.00;;
3801;SDS011;1916;51.798;12.246;2023-02-12T06:53:43;32.60;;;17.90;;
3801;SDS011;1916;51.798;12.246;2023-02-12T06:55:45;36.60;;;17.97;;
3801;SDS011;1916;51.798;12.246;2023-02-12T06:57:48;30.43;;;16.30;;
3801;SDS011;1916;51.798;12.246;2023-02-12T06:59:50;33.63;;;17.13;;
3801;SDS011;1916;51.798;12.246;2023-02-12T07:01:52;29.10;;;16.87;;
3801;SDS011;1916;51.798;12.246;2023-02-12T07:03:55;30.07;;;16.27;;
3801;SDS011;1916;51.798;12.246;2023-02-12T07:05:59;30.20;;;16.63;;
3801;SDS011;1916;51.798;12.246;2023-02-12T07:08:04;35.07;;;16.17;;
3801;SDS011;1916;51.798;12.246;2023-02-12T07:10:06;28.27;;;14.90;;
3801;SDS011;1916;51.798;12.246;2023-02-12T07:12:09;30.90;;;16.67;;
3801;SDS011;1916;51.798;12.246;2023-02-12T07:14:14;26.10;;;15.80;;
3801;SDS011;1916;51.798;12.246;2023-02-12T07:16:17;27.97;;;17.10;;
3801;SDS011;1916;51.798;12.246;2023-02-12T07:18:20;35.70;;;18.07;;
3801;SDS011;1916;51.798;12.246;2023-02-12T07:20:22;31.03;;;18.30;;
3801;SDS011;1916;51.798;12.246;2023-02-12T07:22:24;42.00;;;19.77;;
3801;SDS011;1916;51.798;12.246;2023-02-12T07:24:26;41.37;;;18.90;;
3801;SDS011;1916;51.798;12.246;2023-02-12T07:26:29;32.73;;;18.40;;
3801;SDS011;1916;51.798;12.246;2023-02-12T07:28:31;32.67;;;18.37;;
3801;SDS011;1916;51.798;12.246;2023-02-12T07:30:37;30.10;;;16.23;;
3801;SDS011;1916;51.798;12.246;2023-02-12T07:32:42;26.40;;;17.00;;
3801;SDS011;1916;51.798;12.246;2023-02-12T07:34:44;29.67;;;16.93;;
3801;SDS011;1916;51.798;12.246;2023-02-12T07:36:47;37.20;;;17.93;;
3801;SDS011;1916;51.798;12.246;2023-02-12T07:38:50;30.50;;;18.20;;
3801;SDS011;1916;51.798;12.246;2023-02-12T07:40:52;33.50;;;18.07;;
3801;SDS011;1916;51.798;12.246;2023-02-12T07:42:54;30.40;;;17.73;;
3801;SDS011;1916;51.798;12.246;2023-02-12T07:44:57;32.53;;;17.03;;
3801;SDS011;1916;51.798;12.246;2023-02-12T07:46:59;29.77;;;16.20;;
3801;SDS011;1916;51.798;12.246;2023-02-12T07:49:02;30.13;;;15.30;;
3801;SDS011;1916;51.798;12.246;2023-02-12T07:51:06;26.07;;;15.60;;
3801;SDS011;1916;51.798;12.246;2023-02-12T07:53:10;27.07;;;15.10;;
3801;SDS011;1916;51.798;12.246;2023-02-12T07:55:12;29.30;;;15.50;;
3801;SDS011;1916;51.798;12.246;2023-02-12T07:57:14;31.30;;;15.50;;
3801;SDS011;1916;51.798;12.246;2023-02-12T07:59:17;29.80;;;15.17;;
3801;SDS011;1916;51.798;12.246;2023-02-12T08:01:23;34.40;;;16.50;;
3801;SDS011;1916;51.798;12.246;2023-02-12T08:03:28;31.90;;;17.30;;
3801;SDS011;1916;51.798;12.246;2023-02-12T08:05:30;28.83;;;14.27;;
3801;SDS011;1916;51.798;12.246;2023-02-12T08:07:32;25.00;;;14.33;;
3801;SDS011;1916;51.798;12.246;2023-02-12T08:09:34;33.77;;;15.20;;
3801;SDS011;1916;51.798;12.246;2023-02-12T08:11:36;30.63;;;15.90;;
3801;SDS011;1916;51.798;12.246;2023-02-12T08:13:39;31.27;;;17.00;;
3801;SDS011;1916;51.798;12.246;2023-02-12T08:15:42;29.30;;;16.33;;
3801;SDS011;1916;51.798;12.246;2023-02-12T08:17:44;29.00;;;17.37;;
3801;SDS011;1916;51.798;12.246;2023-02-12T08:19:46;29.93;;;19.30;;
3801;SDS011;1916;51.798;12.246;2023-02-12T08:21:49;30.03;;;18.60;;
3801;SDS011;1916;51.798;12.246;2023-02-12T08:23:52;33.07;;;18.30;;
3801;SDS011;1916;51.798;12.246;2023-02-12T08:26:03;28.83;;;15.10;;
3801;SDS011;1916;51.798;12.246;2023-02-12T08:28:12;33.93;;;16.80;;
3801;SDS011;1916;51.798;12.246;2023-02-12T08:30:14;25.97;;;16.03;;
3801;SDS011;1916;51.798;12.246;2023-02-12T08:32:16;26.83;;;14.90;;
3801;SDS011;1916;51.798;12.246;2023-02-12T08:34:20;33.23;;;16.67;;
3801;SDS011;1916;51.798;12.246;2023-02-12T08:36:24;26.27;;;15.93;;
3801;SDS011;1916;51.798;12.246;2023-02-12T08:38:31;29.80;;;16.63;;
3801;SDS011;1916;51.798;12.246;2023-02-12T08:40:34;29.27;;;16.63;;
3801;SDS011;1916;51.798;12.246;2023-02-12T08:42:36;30.60;;;16.80;;
3801;SDS011;1916;51.798;12.246;2023-02-12T08:44:38;35.37;;;20.60;;
3801;SDS011;1916;51.798;12.246;2023-02-12T08:46:44;33.50;;;18.13;;
3801;SDS011;1916;51.798;12.246;2023-02-12T08:48:48;34.53;;;15.80;;
3801;SDS011;1916;51.798;12.246;2023-02-12T08:50:53;30.77;;;15.90;;
3801;SDS011;1916;51.798;12.246;2023-02-12T08:52:55;34.17;;;17.10;;
3801;SDS011;1916;51.798;12.246;2023-02-12T08:54:57;31.23;;;16.10;;
3801;SDS011;1916;51.798;12.246;2023-02-12T08:57:01;30.03;;;16.43;;
3801;SDS011;1916;51.798;12.246;2023-02-12T08:59:05;27.30;;;15.50;;
3801;SDS011;1916;51.798;12.246;2023-02-12T09:01:12;66.27;;;27.37;;
3801;SDS011;1916;51.798;12.246;2023-02-12T09:03:16;28.37;;;14.80;;
3801;SDS011;1916;51.798;12.246;2023-02-12T09:05:19;29.33;;;16.40;;
3801;SDS011;1916;51.798;12.246;2023-02-12T09:07:21;45.83;;;20.90;;
3801;SDS011;1916;51.798;12.246;2023-02-12T09:09:23;30.77;;;15.40;;
3801;SDS011;1916;51.798;12.246;2023-02-12T09:11:26;34.60;;;16.40;;
3801;SDS011;1916;51.798;12.246;2023-02-12T09:13:32;32.70;;;15.77;;
3801;SDS011;1916;51.798;12.246;2023-02-12T09:15:43;28.57;;;15.40;;
3801;SDS011;1916;51.798;12.246;2023-02-12T09:17:45;31.03;;;15.20;;
3801;SDS011;1916;51.798;12.246;2023-02-12T09:19:47;35.17;;;15.90;;
3801;SDS011;1916;51.798;12.246;2023-02-12T09:21:51;32.63;;;16.47;;
3801;SDS011;1916;51.798;12.246;2023-02-12T09:23:57;34.30;;;16.40;;
3801;SDS011;1916;51.798;12.246;2023-02-12T09:25:59;35.53;;;15.87;;
3801;SDS011;1916;51.798;12.246;2023-02-12T09:28:08;26.90;;;14.30;;
3801;SDS011;1916;51.798;12.246;2023-02-12T09:30:11;32.93;;;14.90;;
3801;SDS011;1916;51.798;12.246;2023-02-12T09:32:14;31.50;;;14.97;;
3801;SDS011;1916;51.798;12.246;2023-02-12T09:34:16;28.80;;;14.40;;
3801;SDS011;1916;51.798;12.246;2023-02-12T09:36:18;24.87;;;13.73;;
3801;SDS011;1916;51.798;12.246;2023-02-12T09:38:20;32.70;;;15.27;;
3801;SDS011;1916;51.798;12.246;2023-02-12T09:45:15;27.33;;;16.17;;
3801;SDS011;1916;51.798;12.246;2023-02-12T09:47:29;28.50;;;16.27;;
3801;SDS011;1916;51.798;12.246;2023-02-12T09:49:47;25.30;;;14.70;;
3801;SDS011;1916;51.798;12.246;2023-02-12T09:51:52;22.93;;;13.00;;
3801;SDS011;1916;51.798;12.246;2023-02-12T09:54:00;24.40;;;14.40;;
3801;SDS011;1916;51.798;12.246;2023-02-12T09:56:08;24.70;;;13.40;;
3801;SDS011;1916;51.798;12.246;2023-02-12T09:58:14;19.83;;;12.83;;
3801;SDS011;1916;51.798;12.246;2023-02-12T10:00:25;28.10;;;12.40;;
3801;SDS011;1916;51.798;12.246;2023-02-12T10:02:29;21.90;;;13.57;;
3801;SDS011;1916;51.798;12.246;2023-02-12T10:04:31;22.63;;;12.70;;
3801;SDS011;1916;51.798;12.246;2023-02-12T10:06:40;21.70;;;12.53;;
3801;SDS011;1916;51.798;12.246;2023-02-12T10:10:52;21.70;;;11.53;;
3801;SDS011;1916;51.798;12.246;2023-02-12T10:13:04;19.30;;;12.93;;
3801;SDS011;1916;51.798;12.246;2023-02-12T10:17:36;20.53;;;11.53;;
3801;SDS011;1916;51.798;12.246;2023-02-12T10:20:21;16.70;;;11.17;;
3801;SDS011;1916;51.798;12.246;2023-02-12T10:25:13;20.97;;;9.60;;
3801;SDS011;1916;51.798;12.246;2023-02-12T10:27:48;20.43;;;10.70;;
3801;SDS011;1916;51.798;12.246;2023-02-12T10:29:49;18.50;;;10.60;;
3801;SDS011;1916;51.798;12.246;2023-02-12T10:34:19;23.30;;;11.43;;
3801;SDS011;1916;51.798;12.246;2023-02-12T10:38:31;22.00;;;10.13;;
3801;SDS011;1916;51.798;12.246;2023-02-12T10:40:36;15.70;;;10.13;;
3801;SDS011;1916;51.798;12.246;2023-02-12T10:42:47;19.10;;;9.20;;
3801;SDS011;1916;51.798;12.246;2023-02-12T10:44:51;21.40;;;9.33;;
3801;SDS011;1916;51.798;12.246;2023-02-12T10:46:53;17.13;;;10.70;;
3801;SDS011;1916;51.798;12.246;2023-02-12T10:48:55;14.63;;;8.97;;
3801;SDS011;1916;51.798;12.246;2023-02-12T10:53:14;16.67;;;8.50;;
3801;SDS011;1916;51.798;12.246;2023-02-12T10:55:34;14.33;;;8.80;;
3801;SDS011;1916;51.798;12.246;2023-02-12T10:57:37;14.87;;;8.30;;
3801;SDS011;1916;51.798;12.246;2023-02-12T10:59:41;11.87;;;8.17;;
3801;SDS011;1916;51.798;12.246;2023-02-12T11:01:45;16.30;;;9.30;;
3801;SDS011;1916;51.798;12.246;2023-02-12T11:03:48;12.53;;;8.10;;
3801;SDS011;1916;51.798;12.246;2023-02-12T11:05:50;13.13;;;8.33;;
3801;SDS011;1916;51.798;12.246;2023-02-12T11:07:55;14.90;;;9.20;;
3801;SDS011;1916;51.798;12.246;2023-02-12T11:09:58;14.93;;;9.10;;
3801;SDS011;1916;51.798;12.246;2023-02-12T11:12:01;14.27;;;9.27;;
3801;SDS011;1916;51.798;12.246;2023-02-12T11:14:05;15.50;;;9.47;;
3801;SDS011;1916;51.798;12.246;2023-02-12T11:16:11;17.13;;;10.73;;
3801;SDS011;1916;51.798;12.246;2023-02-12T11:18:32;18.83;;;10.47;;
3801;SDS011;1916;51.798;12.246;2023-02-12T11:23:02;19.67;;;10.10;;
3801;SDS011;1916;51.798;12.246;2023-02-12T11:25:14;21.23;;;11.10;;
3801;SDS011;1916;51.798;12.246;2023-02-12T11:27:21;16.50;;;10.73;;
3801;SDS011;1916;51.798;12.246;2023-02-12T11:29:25;15.33;;;9.70;;
3801;SDS011;1916;51.798;12.246;2023-02-12T11:31:28;15.57;;;9.23;;
3801;SDS011;1916;51.798;12.246;2023-02-12T11:33:35;13.77;;;8.10;;
3801;SDS011;1916;51.798;12.246;2023-02-12T11:35:47;13.10;;;7.90;;
3801;SDS011;1916;51.798;12.246;2023-02-12T11:37:52;12.57;;;7.93;;
3801;SDS011;1916;51.798;12.246;2023-02-12T11:39:55;14.43;;;7.47;;
3801;SDS011;1916;51.798;12.246;2023-02-12T11:42:00;8.40;;;6.00;;
3801;SDS011;1916;51.798;12.246;2023-02-12T11:44:11;10.80;;;6.27;;
3801;SDS011;1916;51.798;12.246;2023-02-12T11:46:18;10.57;;;6.30;;
3801;SDS011;1916;51.798;12.246;2023-02-12T11:48:29;7.80;;;5.50;;
3801;SDS011;1916;51.798;12.246;2023-02-12T11:50:33;9.50;;;6.00;;
3801;SDS011;1916;51.798;12.246;2023-02-12T11:52:36;11.00;;;6.10;;
3801;SDS011;1916;51.798;12.246;2023-02-12T11:54:39;10.00;;;6.17;;
3801;SDS011;1916;51.798;12.246;2023-02-12T11:56:44;10.20;;;6.67;;
3801;SDS011;1916;51.798;12.246;2023-02-12T11:58:48;10.70;;;5.93;;
3801;SDS011;1916;51.798;12.246;2023-02-12T12:01:00;10.03;;;6.73;;
3801;SDS011;1916;51.798;12.246;2023-02-12T12:03:13;8.20;;;6.27;;
3801;SDS011;1916;51.798;12.246;2023-02-12T12:05:37;9.33;;;5.63;;
3801;SDS011;1916;51.798;12.246;2023-02-12T12:07:47;12.37;;;6.90;;
3801;SDS011;1916;51.798;12.246;2023-02-12T12:09:57;13.63;;;6.20;;
3801;SDS011;1916;51.798;12.246;2023-02-12T12:12:09;10.37;;;6.57;;
3801;SDS011;1916;51.798;12.246;2023-02-12T12:14:24;13.37;;;6.40;;
3801;SDS011;1916;51.798;12.246;2023-02-12T12:16:34;9.77;;;6.07;;
3801;SDS011;1916;51.798;12.246;2023-02-12T12:19:18;12.47;;;6.03;;
3801;SDS011;1916;51.798;12.246;2023-02-12T12:22:08;11.60;;;5.80;;
3801;SDS011;1916;51.798;12.246;2023-02-12T12:26:23;11.30;;;7.30;;
3801;SDS011;1916;51.798;12.246;2023-02-12T12:33:00;12.47;;;7.43;;
3801;SDS011;1916;51.798;12.246;2023-02-12T12:35:07;12.43;;;6.87;;
3801;SDS011;1916;51.798;12.246;2023-02-12T12:40:05;9.20;;;6.80;;
3801;SDS011;1916;51.798;12.246;2023-02-12T12:42:44;8.47;;;6.10;;
3801;SDS011;1916;51.798;12.246;2023-02-12T12:49:29;12.17;;;5.90;;
3801;SDS011;1916;51.798;12.246;2023-02-12T12:51:43;8.53;;;6.23;;
3801;SDS011;1916;51.798;12.246;2023-02-12T13:15:02;9.23;;;5.30;;
3801;SDS011;1916;51.798;12.246;2023-02-12T13:17:31;9.80;;;7.70;;
3801;SDS011;1916;51.798;12.246;2023-02-12T13:20:17;7.93;;;5.80;;
3801;SDS011;1916;51.798;12.246;2023-02-12T13:24:51;16.57;;;10.00;;
3801;SDS011;1916;51.798;12.246;2023-02-12T13:27:06;13.17;;;7.53;;
3801;SDS011;1916;51.798;12.246;2023-02-12T13:29:20;11.20;;;6.57;;
3801;SDS011;1916;51.798;12.246;2023-02-12T13:31:26;12.87;;;7.13;;
3801;SDS011;1916;51.798;12.246;2023-02-12T13:33:41;10.47;;;5.80;;
3801;SDS011;1916;51.798;12.246;2023-02-12T13:35:46;9.73;;;5.87;;
3801;SDS011;1916;51.798;12.246;2023-02-12T13:37:52;9.43;;;6.03;;
3801;SDS011;1916;51.798;12.246;2023-02-12T13:39:54;9.40;;;5.83;;
3801;SDS011;1916;51.798;12.246;2023-02-12T13:42:09;14.10;;;6.53;;
3801;SDS011;1916;51.798;12.246;2023-02-12T13:44:30;8.73;;;5.60;;
3801;SDS011;1916;51.798;12.246;2023-02-12T13:51:43;9.90;;;6.30;;
3801;SDS011;1916;51.798;12.246;2023-02-12T13:56:06;8.97;;;5.47;;
3801;SDS011;1916;51.798;12.246;2023-02-12T14:02:53;11.17;;;6.70;;
3801;SDS011;1916;51.798;12.246;2023-02-12T14:04:57;11.47;;;6.90;;
3801;SDS011;1916;51.798;12.246;2023-02-12T14:07:02;9.10;;;6.23;;
3801;SDS011;1916;51.798;12.246;2023-02-12T14:09:08;11.53;;;6.70;;
3801;SDS011;1916;51.798;12.246;2023-02-12T14:11:14;12.27;;;9.03;;
3801;SDS011;1916;51.798;12.246;2023-02-12T14:13:21;12.60;;;6.70;;
3801;SDS011;1916;51.798;12.246;2023-02-12T14:15:29;10.67;;;7.23;;
3801;SDS011;1916;51.798;12.246;2023-02-12T14:21:51;10.33;;;7.87;;
3801;SDS011;1916;51.798;12.246;2023-02-12T14:23:53;11.97;;;7.03;;
3801;SDS011;1916;51.798;12.246;2023-02-12T14:28:24;19.43;;;10.87;;
3801;SDS011;1916;51.798;12.246;2023-02-12T14:30:33;15.90;;;9.60;;